createdAt,value
2022-11-17T00:05:06.251Z,16.83
2022-11-17T00:08:09.131Z,16.87
2022-11-17T00:11:12.320Z,18.35
2022-11-17T00:14:33.318Z,18.05
2022-11-17T00:17:36.476Z,18.33
2022-11-17T00:20:58.339Z,18.10
2022-11-17T00:24:01.868Z,17.00
2022-11-17T00:27:04.760Z,17.58
2022-11-17T00:30:08.285Z,17.12
2022-11-17T00:33:31.451Z,17.25
2022-11-17T00:36:37.831Z,17.92
2022-11-17T00:39:40.990Z,17.45
2022-11-17T00:42:44.492Z,17.80
2022-11-17T00:45:47.285Z,17.75
2022-11-17T00:48:50.519Z,19.33
2022-11-17T00:51:57.848Z,17.23
2022-11-17T00:55:01.001Z,17.08
2022-11-17T00:58:03.913Z,18.62
2022-11-17T01:01:07.171Z,19.23
2022-11-17T01:04:10.042Z,19.40
2022-11-17T01:07:13.161Z,18.35
2022-11-17T01:10:16.142Z,18.27
2022-11-17T01:13:19.290Z,18.95
2022-11-17T01:16:22.827Z,18.15
2022-11-17T01:19:26.055Z,18.92
2022-11-17T01:22:28.953Z,18.30
2022-11-17T01:25:32.624Z,17.80
2022-11-17T01:28:36.508Z,19.52
2022-11-17T01:31:43.451Z,18.73
2022-11-17T01:34:47.393Z,18.15
2022-11-17T01:37:50.515Z,20.70
2022-11-17T01:40:53.429Z,17.85
2022-11-17T01:44:38.002Z,17.98
2022-11-17T01:47:47.559Z,18.25
2022-11-17T01:50:52.256Z,18.42
2022-11-17T01:53:55.147Z,19.03
2022-11-17T01:57:03.641Z,18.17
2022-11-17T02:00:09.274Z,17.58
2022-11-17T02:03:13.226Z,17.12
2022-11-17T02:06:21.467Z,18.00
2022-11-17T02:09:26.201Z,16.35
2022-11-17T02:12:31.978Z,17.60
2022-11-17T02:15:35.103Z,16.65
2022-11-17T02:18:39.638Z,15.18
2022-11-17T02:22:05.703Z,17.25
2022-11-17T02:25:33.979Z,18.17
2022-11-17T02:28:47.815Z,16.98
2022-11-17T02:32:00.321Z,17.62
2022-11-17T02:35:10.267Z,16.95
2022-11-17T02:38:39.154Z,16.20
2022-11-17T02:41:51.404Z,15.85
2022-11-17T02:44:58.038Z,16.52
2022-11-17T02:48:06.574Z,16.42
2022-11-17T02:51:13.552Z,15.32
2022-11-17T02:54:17.871Z,16.15
2022-11-17T02:57:34.907Z,16.05
2022-11-17T03:00:44.496Z,16.35
2022-11-17T03:04:09.181Z,15.32
2022-11-17T03:07:58.687Z,15.80
2022-11-17T03:11:06.532Z,15.55
2022-11-17T03:14:31.919Z,15.10
2022-11-17T03:17:57.143Z,16.57
2022-11-17T03:21:14.948Z,14.85
2022-11-17T03:24:33.824Z,15.45
2022-11-17T03:27:44.435Z,15.20
2022-11-17T03:30:48.331Z,14.87
2022-11-17T03:33:52.659Z,16.02
2022-11-17T03:37:00.161Z,16.58
2022-11-17T03:40:08.133Z,16.75
2022-11-17T03:43:13.356Z,16.35
2022-11-17T03:46:17.593Z,16.23
2022-11-17T03:49:29.507Z,16.75
2022-11-17T03:52:34.153Z,15.88
2022-11-17T03:56:01.674Z,16.58
2022-11-17T03:59:53.365Z,16.05
2022-11-17T04:02:58.974Z,14.98
2022-11-17T04:06:02.283Z,15.80
2022-11-17T04:09:05.172Z,16.20
2022-11-17T04:12:28.502Z,15.48
2022-11-17T04:15:49.959Z,16.02
2022-11-17T04:18:58.558Z,15.00
2022-11-17T04:22:01.938Z,14.93
2022-11-17T04:25:06.013Z,15.05
2022-11-17T04:28:27.564Z,14.43
2022-11-17T04:31:31.760Z,12.88
2022-11-17T04:34:34.671Z,14.30
2022-11-17T04:37:38.540Z,14.85
2022-11-17T04:41:01.939Z,14.00
2022-11-17T04:44:07.746Z,14.70
2022-11-17T04:47:10.616Z,13.30
2022-11-17T04:50:15.210Z,13.93
2022-11-17T04:53:18.047Z,14.25
2022-11-17T04:56:21.969Z,14.02
2022-11-17T04:59:25.010Z,14.70
2022-11-17T05:02:28.356Z,13.98
2022-11-17T05:05:31.243Z,13.52
2022-11-17T05:08:36.740Z,14.30
2022-11-17T05:15:01.557Z,13.77
2022-11-17T05:18:05.403Z,13.85
2022-11-17T05:21:10.250Z,14.65
2022-11-17T05:24:14.525Z,14.80
2022-11-17T05:27:17.719Z,15.17
2022-11-17T05:30:20.658Z,14.93
2022-11-17T05:33:23.877Z,15.20
2022-11-17T05:36:27.468Z,15.27
2022-11-17T05:39:30.603Z,15.27
2022-11-17T05:42:34.221Z,14.70
2022-11-17T05:45:37.374Z,16.00
2022-11-17T05:48:46.371Z,15.02
2022-11-17T05:51:53.119Z,15.20
2022-11-17T05:54:56.195Z,16.17
2022-11-17T05:58:02.651Z,14.98
2022-11-17T06:01:05.653Z,15.57
2022-11-17T06:04:09.071Z,15.63
2022-11-17T06:07:12.028Z,16.48
2022-11-17T06:10:15.296Z,16.23
2022-11-17T06:13:20.279Z,16.12
2022-11-17T06:19:40.251Z,15.82
2022-11-17T06:22:48.181Z,16.20
2022-11-17T06:25:51.460Z,15.43
2022-11-17T06:28:55.030Z,15.85
2022-11-17T06:31:58.672Z,16.02
2022-11-17T06:35:04.713Z,16.12
2022-11-17T06:38:07.960Z,15.30
2022-11-17T06:41:12.173Z,16.12
2022-11-17T06:44:16.335Z,15.07
2022-11-17T06:47:19.815Z,15.70
2022-11-17T06:50:23.329Z,16.37
2022-11-17T06:53:26.834Z,16.25
2022-11-17T06:56:29.904Z,16.10
2022-11-17T06:59:33.077Z,16.02
2022-11-17T07:02:37.501Z,16.30
2022-11-17T07:05:40.779Z,14.43
2022-11-17T07:08:45.505Z,15.63
2022-11-17T07:11:48.675Z,15.88
2022-11-17T07:14:51.583Z,15.30
2022-11-17T07:17:55.187Z,16.40
2022-11-17T07:21:03.087Z,16.42
2022-11-17T07:24:06.487Z,16.12
2022-11-17T07:27:09.344Z,15.43
2022-11-17T07:30:13.427Z,16.37
2022-11-17T07:33:16.309Z,15.43
2022-11-17T07:36:19.449Z,15.40
2022-11-17T07:39:22.559Z,14.25
2022-11-17T07:42:25.695Z,16.65
2022-11-17T07:45:31.867Z,15.98
2022-11-17T07:48:35.932Z,15.70
2022-11-17T07:51:39.103Z,15.00
2022-11-17T07:54:42.265Z,15.55
2022-11-17T07:57:45.488Z,15.05
2022-11-17T08:00:48.636Z,16.40
2022-11-17T08:03:51.850Z,15.55
2022-11-17T08:06:54.779Z,15.55
2022-11-17T08:09:57.992Z,14.70
2022-11-17T08:13:01.519Z,15.88
2022-11-17T08:16:05.444Z,14.48
2022-11-17T08:19:12.087Z,15.32
2022-11-17T08:22:15.491Z,14.87
2022-11-17T08:25:23.003Z,16.67
2022-11-17T08:28:26.685Z,16.50
2022-11-17T08:31:29.738Z,15.05
2022-11-17T08:34:33.273Z,15.70
2022-11-17T08:37:40.685Z,16.15
2022-11-17T08:40:46.113Z,14.75
2022-11-17T08:46:55.952Z,11.38
2022-11-17T08:49:59.030Z,14.98
2022-11-17T08:53:02.149Z,13.60
2022-11-17T08:56:12.268Z,12.82
2022-11-17T08:59:15.704Z,13.48
2022-11-17T09:02:18.728Z,15.25
2022-11-17T09:05:22.230Z,14.23
2022-11-17T09:11:48.219Z,14.05
2022-11-17T09:14:51.065Z,14.98
2022-11-17T09:17:54.270Z,15.68
2022-11-17T09:21:08.925Z,14.25
2022-11-17T09:24:12.159Z,15.60
2022-11-17T09:27:15.127Z,12.90
2022-11-17T09:30:22.251Z,12.23
2022-11-17T09:33:25.485Z,13.80
2022-11-17T09:36:29.868Z,12.68
2022-11-17T09:39:32.765Z,14.00
2022-11-17T09:42:41.142Z,14.20
2022-11-17T09:45:46.643Z,12.98
2022-11-17T09:48:57.894Z,14.05
2022-11-17T09:52:05.860Z,14.25
2022-11-17T09:55:08.937Z,13.20
2022-11-17T09:58:19.191Z,13.73
2022-11-17T10:01:23.374Z,12.80
2022-11-17T10:04:29.124Z,13.43
2022-11-17T10:10:40.412Z,11.50
2022-11-17T10:13:43.260Z,10.95
2022-11-17T10:16:52.962Z,12.30
2022-11-17T10:19:55.799Z,11.85
2022-11-17T10:22:59.087Z,10.18
2022-11-17T10:26:07.123Z,11.45
2022-11-17T10:29:14.173Z,11.65
2022-11-17T10:32:17.043Z,12.45
2022-11-17T10:35:34.891Z,12.43
2022-11-17T10:38:44.602Z,11.23
2022-11-17T10:41:50.845Z,11.05
2022-11-17T10:44:59.665Z,9.90
2022-11-17T10:48:29.453Z,11.20
2022-11-17T10:51:33.621Z,10.55
2022-11-17T10:54:37.481Z,10.83
2022-11-17T10:57:44.658Z,10.20
2022-11-17T11:00:54.415Z,8.90
2022-11-17T11:03:57.668Z,9.93
2022-11-17T11:07:21.886Z,9.38
2022-11-17T11:10:32.427Z,9.30
2022-11-17T11:13:53.371Z,9.43
2022-11-17T11:16:56.320Z,9.13
2022-11-17T11:19:59.741Z,9.75
2022-11-17T11:23:09.903Z,8.50
2022-11-17T11:26:20.454Z,8.40
2022-11-17T11:29:42.673Z,7.97
2022-11-17T11:32:53.021Z,7.68
2022-11-17T11:36:08.099Z,8.00
2022-11-17T11:39:30.222Z,8.15
2022-11-17T11:42:53.143Z,8.85
2022-11-17T11:46:03.097Z,8.45
2022-11-17T11:49:36.471Z,8.85
2022-11-17T11:52:44.964Z,8.00
2022-11-17T11:55:50.072Z,8.10
2022-11-17T11:59:02.513Z,9.02
2022-11-17T12:02:11.522Z,8.07
2022-11-17T12:05:26.755Z,8.00
2022-11-17T12:08:36.585Z,8.30
2022-11-17T12:12:00.606Z,6.90
2022-11-17T12:15:18.826Z,7.25
2022-11-17T12:18:22.301Z,7.47
2022-11-17T12:21:30.314Z,7.45
2022-11-17T12:24:39.255Z,7.10
2022-11-17T12:27:47.175Z,6.97
2022-11-17T12:30:53.815Z,7.18
2022-11-17T12:34:09.714Z,7.37
2022-11-17T12:37:15.828Z,8.13
2022-11-17T12:40:41.639Z,7.22
2022-11-17T12:43:44.754Z,6.30
2022-11-17T12:46:49.422Z,6.70
2022-11-17T12:50:09.709Z,6.87
2022-11-17T12:53:21.095Z,6.62
2022-11-17T12:57:08.110Z,6.70
2022-11-17T13:00:22.543Z,6.35
2022-11-17T13:03:48.150Z,5.78
2022-11-17T13:07:21.948Z,6.72
2022-11-17T13:10:31.014Z,6.22
2022-11-17T13:13:37.206Z,7.25
2022-11-17T13:16:49.187Z,6.90
2022-11-17T13:20:28.264Z,7.78
2022-11-17T13:23:33.574Z,7.12
2022-11-17T13:26:38.337Z,6.80
2022-11-17T13:29:41.616Z,7.40
2022-11-17T13:32:44.667Z,7.00
2022-11-17T13:35:47.918Z,7.90
2022-11-17T13:38:52.497Z,7.22
2022-11-17T13:45:06.270Z,7.68
2022-11-17T13:48:38.696Z,8.13
2022-11-17T13:51:44.391Z,8.38
2022-11-17T13:54:47.631Z,7.22
2022-11-17T13:58:29.241Z,8.13
2022-11-17T14:01:33.458Z,7.78
2022-11-17T14:04:38.190Z,8.00
2022-11-17T14:07:43.242Z,9.20
2022-11-17T14:10:46.494Z,8.80
2022-11-17T14:13:51.824Z,8.68
2022-11-17T14:16:57.712Z,9.15
2022-11-17T14:20:20.893Z,8.93
2022-11-17T14:23:24.236Z,8.38
2022-11-17T14:26:27.317Z,9.18
2022-11-17T14:29:30.663Z,9.32
2022-11-17T14:32:35.048Z,8.95
2022-11-17T14:35:38.401Z,8.65
2022-11-17T14:38:41.563Z,8.40
2022-11-17T14:41:47.098Z,8.82
2022-11-17T14:44:51.347Z,8.48
2022-11-17T14:47:54.451Z,8.48
2022-11-17T14:50:59.529Z,9.77
2022-11-17T14:54:04.355Z,8.55
2022-11-17T14:57:07.458Z,9.27
2022-11-17T15:00:15.838Z,9.40
2022-11-17T15:03:21.858Z,9.30
2022-11-17T15:06:26.788Z,9.35
2022-11-17T15:09:38.836Z,9.31
2022-11-17T15:12:42.011Z,9.50
2022-11-17T15:15:44.895Z,9.05
2022-11-17T15:18:48.959Z,9.18
2022-11-17T15:21:51.808Z,10.52
2022-11-17T15:24:54.979Z,18.12
2022-11-17T15:27:57.866Z,13.20
2022-11-17T15:31:10.329Z,10.13
2022-11-17T15:34:18.724Z,9.73
2022-11-17T15:37:23.203Z,9.13
2022-11-17T15:40:26.067Z,9.82
2022-11-17T15:43:31.039Z,10.60
2022-11-17T15:46:33.864Z,8.55
2022-11-17T15:49:37.100Z,9.65
2022-11-17T15:53:02.920Z,9.75
2022-11-17T15:56:08.118Z,9.43
2022-11-17T15:59:11.159Z,9.73
2022-11-17T16:02:15.056Z,9.98
2022-11-17T16:05:18.247Z,9.00
2022-11-17T16:08:21.076Z,9.35
2022-11-17T16:11:25.875Z,9.40
2022-11-17T16:17:32.848Z,10.45
2022-11-17T16:20:35.846Z,9.88
2022-11-17T16:23:43.805Z,9.15
2022-11-17T16:26:47.685Z,9.43
2022-11-17T16:29:50.768Z,9.60
2022-11-17T16:32:54.090Z,10.07
2022-11-17T16:36:04.748Z,10.93
2022-11-17T16:39:10.922Z,9.82
2022-11-17T16:42:14.253Z,11.23
2022-11-17T16:45:17.092Z,12.80
2022-11-17T16:48:20.269Z,13.57
2022-11-17T16:51:23.348Z,16.87
2022-11-17T16:54:26.628Z,16.67
2022-11-17T16:57:29.861Z,19.23
2022-11-17T17:00:35.276Z,27.27
2022-11-17T17:06:42.638Z,23.30
2022-11-17T17:09:45.408Z,21.52
2022-11-17T17:12:48.427Z,20.23
2022-11-17T17:15:51.518Z,19.33
2022-11-17T17:19:00.408Z,17.90
2022-11-17T17:22:03.968Z,15.23
2022-11-17T17:25:09.493Z,16.92
2022-11-17T17:28:12.432Z,26.08
2022-11-17T17:31:21.264Z,24.83
2022-11-17T17:34:26.283Z,18.92
2022-11-17T17:37:33.450Z,19.27
2022-11-17T17:40:36.808Z,20.90
2022-11-17T17:43:40.946Z,24.80
2022-11-17T17:46:52.070Z,23.17
2022-11-17T17:49:56.719Z,23.30
2022-11-17T17:52:59.940Z,24.05
2022-11-17T17:56:11.632Z,22.77
2022-11-17T17:59:16.334Z,21.48
2022-11-17T18:02:21.068Z,16.05
2022-11-17T18:05:24.458Z,14.43
2022-11-17T18:08:28.252Z,11.63
2022-11-17T18:11:33.466Z,11.57
2022-11-17T18:14:36.818Z,10.63
2022-11-17T18:17:40.826Z,10.18
2022-11-17T18:20:44.604Z,9.75
2022-11-17T18:23:48.359Z,10.30
2022-11-17T18:26:51.494Z,10.20
2022-11-17T18:29:55.099Z,9.68
2022-11-17T18:33:02.765Z,9.52
2022-11-17T18:36:08.644Z,16.58
2022-11-17T18:42:16.926Z,17.77
2022-11-17T18:45:19.804Z,17.17
2022-11-17T18:48:23.351Z,12.93
2022-11-17T18:51:29.284Z,10.90
2022-11-17T18:54:33.073Z,11.90
2022-11-17T18:57:39.596Z,11.10
2022-11-17T19:00:47.816Z,11.45
2022-11-17T19:03:54.766Z,10.82
2022-11-17T19:07:01.016Z,11.15
2022-11-17T19:10:03.970Z,10.35
2022-11-17T19:13:07.442Z,11.07
2022-11-17T19:16:27.353Z,10.90
2022-11-17T19:19:31.080Z,11.98
2022-11-17T19:22:35.811Z,10.90
2022-11-17T19:25:40.765Z,11.60
2022-11-17T19:28:44.788Z,12.00
2022-11-17T19:31:51.840Z,14.67
2022-11-17T19:35:01.343Z,16.58
2022-11-17T19:38:11.227Z,12.50
2022-11-17T19:41:17.414Z,13.73
2022-11-17T19:44:21.925Z,13.27
2022-11-17T19:47:25.259Z,14.70
2022-11-17T19:50:30.834Z,14.65
2022-11-17T19:53:34.098Z,13.48
2022-11-17T19:56:40.070Z,12.65
2022-11-17T19:59:43.440Z,12.07
2022-11-17T20:02:47.161Z,12.57
2022-11-17T20:05:50.710Z,12.13
2022-11-17T20:08:55.243Z,12.05
2022-11-17T20:12:06.363Z,12.75
2022-11-17T20:15:27.012Z,13.27
2022-11-17T20:18:33.919Z,12.88
2022-11-17T20:21:37.239Z,12.23
2022-11-17T20:24:40.935Z,12.77
2022-11-17T20:27:46.164Z,15.45
2022-11-17T20:30:50.945Z,14.82
2022-11-17T20:34:00.605Z,15.90
2022-11-17T20:37:04.294Z,30.40
2022-11-17T20:40:08.843Z,28.70
2022-11-17T20:43:13.538Z,28.23
2022-11-17T20:46:17.064Z,19.05
2022-11-17T20:49:21.054Z,19.30
2022-11-17T20:52:30.128Z,18.60
2022-11-17T20:55:34.396Z,15.85
2022-11-17T20:58:38.383Z,14.38
2022-11-17T21:01:43.035Z,15.07
2022-11-17T21:04:46.352Z,15.25
2022-11-17T21:07:49.630Z,16.20
2022-11-17T21:11:00.045Z,16.15
2022-11-17T21:14:05.646Z,16.15
2022-11-17T21:20:33.771Z,14.70
2022-11-17T21:23:38.123Z,14.07
2022-11-17T21:26:41.635Z,13.95
2022-11-17T21:29:44.832Z,14.20
2022-11-17T21:32:48.342Z,14.02
2022-11-17T21:35:51.174Z,15.38
2022-11-17T21:38:55.650Z,14.80
2022-11-17T21:42:00.376Z,14.43
2022-11-17T21:45:03.540Z,17.35
2022-11-17T21:48:08.132Z,21.60
2022-11-17T21:51:23.387Z,21.73
2022-11-17T21:54:26.145Z,27.25
2022-11-17T21:57:29.432Z,26.35
2022-11-17T22:00:32.029Z,29.65
2022-11-17T22:03:35.951Z,31.33
2022-11-17T22:06:39.220Z,30.00
2022-11-17T22:09:42.409Z,31.10
2022-11-17T22:12:45.277Z,30.73
2022-11-17T22:15:48.354Z,27.62
2022-11-17T22:18:51.170Z,26.45
2022-11-17T22:21:55.416Z,25.80
2022-11-17T22:25:11.438Z,24.25
2022-11-17T22:28:22.420Z,25.85
2022-11-17T22:31:25.962Z,26.23
2022-11-17T22:34:29.079Z,21.45
2022-11-17T22:37:32.118Z,23.50
2022-11-17T22:40:35.648Z,22.85
2022-11-17T22:43:38.469Z,20.70
2022-11-17T22:46:43.249Z,21.08
2022-11-17T22:49:46.713Z,19.60
2022-11-17T22:52:49.979Z,19.60
2022-11-17T22:55:52.887Z,18.80
2022-11-17T22:58:59.610Z,18.58
2022-11-17T23:02:02.973Z,17.62
2022-11-17T23:05:06.291Z,18.17
2022-11-17T23:08:10.044Z,20.62
2022-11-17T23:11:35.964Z,19.37
2022-11-17T23:14:36.290Z,18.27
2022-11-17T23:17:39.459Z,19.12
2022-11-17T23:20:42.279Z,19.17
2022-11-17T23:23:46.318Z,19.75
2022-11-17T23:26:49.179Z,19.70
2022-11-17T23:29:52.229Z,20.50
2022-11-17T23:32:58.001Z,20.20
2022-11-17T23:36:06.978Z,20.00
2022-11-17T23:39:09.930Z,21.23
2022-11-17T23:42:13.110Z,20.37
2022-11-17T23:45:16.260Z,19.87
2022-11-17T23:48:20.402Z,21.87
2022-11-17T23:51:25.648Z,23.00
2022-11-17T23:54:28.749Z,22.55
2022-11-17T23:57:32.850Z,25.55
